createdAt,value
2023-03-10T00:00:43.460Z,41.01
2023-03-10T00:01:43.469Z,40.91
2023-03-10T00:02:43.462Z,41.01
2023-03-10T00:03:43.469Z,41.01
2023-03-10T00:04:43.522Z,40.91
2023-03-10T00:05:43.480Z,40.91
2023-03-10T00:06:43.473Z,41.01
2023-03-10T00:07:43.409Z,40.91
2023-03-10T00:08:43.375Z,40.91
2023-03-10T00:09:43.378Z,40.91
2023-03-10T00:10:43.388Z,40.91
2023-03-10T00:11:43.370Z,41.01
2023-03-10T00:12:43.364Z,40.91
2023-03-10T00:13:43.350Z,40.91
2023-03-10T00:14:43.333Z,40.91
2023-03-10T00:15:43.395Z,40.91
2023-03-10T00:16:43.325Z,40.91
2023-03-10T00:17:43.319Z,40.91
2023-03-10T00:18:43.311Z,40.91
2023-03-10T00:19:43.291Z,40.91
2023-03-10T00:20:43.310Z,40.91
2023-03-10T00:21:43.307Z,40.91
2023-03-10T00:22:43.230Z,40.91
2023-03-10T00:23:43.261Z,40.91
2023-03-10T00:24:43.248Z,40.91
2023-03-10T00:25:43.219Z,40.91
2023-03-10T00:26:43.189Z,40.91
2023-03-10T00:27:43.225Z,40.91
2023-03-10T00:28:43.191Z,40.91
2023-03-10T00:29:43.190Z,40.91
2023-03-10T00:30:43.197Z,40.91
2023-03-10T00:31:43.164Z,40.91
2023-03-10T00:32:43.178Z,40.91
2023-03-10T00:33:43.191Z,40.91
2023-03-10T00:34:43.125Z,40.91
2023-03-10T00:35:43.141Z,40.91
2023-03-10T00:36:43.108Z,40.81
2023-03-10T00:37:43.115Z,40.81
2023-03-10T00:38:43.094Z,40.91
2023-03-10T00:39:43.117Z,40.81
2023-03-10T00:40:43.057Z,40.81
2023-03-10T00:41:43.073Z,40.81
2023-03-10T00:42:43.053Z,40.81
2023-03-10T00:43:43.681Z,40.81
2023-03-10T00:44:43.046Z,40.81
2023-03-10T00:45:43.031Z,40.81
2023-03-10T00:46:43.078Z,40.81
2023-03-10T00:47:43.045Z,40.81
2023-03-10T00:48:42.989Z,40.83
2023-03-10T00:49:42.998Z,40.81
2023-03-10T00:50:42.977Z,40.83
2023-03-10T00:51:43.020Z,40.81
2023-03-10T00:52:42.952Z,40.83
2023-03-10T00:53:42.981Z,40.83
2023-03-10T00:54:42.946Z,40.83
2023-03-10T00:55:42.968Z,40.83
2023-03-10T00:56:42.897Z,40.83
2023-03-10T00:57:42.924Z,40.83
2023-03-10T00:58:42.897Z,40.83
2023-03-10T00:59:50.344Z,40.83
2023-03-10T01:00:43.937Z,40.73
2023-03-10T01:01:42.929Z,40.83
2023-03-10T01:02:42.881Z,40.83
2023-03-10T01:03:42.849Z,40.83
2023-03-10T01:04:42.899Z,40.83
2023-03-10T01:05:42.837Z,40.83
2023-03-10T01:06:42.835Z,40.73
2023-03-10T01:07:42.816Z,40.83
2023-03-10T01:08:42.828Z,40.73
2023-03-10T01:09:42.777Z,40.83
2023-03-10T01:10:42.776Z,40.73
2023-03-10T01:11:42.776Z,40.73
2023-03-10T01:12:42.844Z,40.83
2023-03-10T01:13:42.734Z,40.73
2023-03-10T01:14:42.757Z,40.73
2023-03-10T01:15:42.734Z,40.73
2023-03-10T01:16:42.723Z,40.73
2023-03-10T01:17:42.727Z,40.73
2023-03-10T01:18:42.730Z,40.73
2023-03-10T01:19:42.678Z,40.73
2023-03-10T01:20:42.713Z,40.73
2023-03-10T01:21:42.659Z,40.73
2023-03-10T01:22:42.712Z,40.73
2023-03-10T01:23:42.648Z,40.73
2023-03-10T01:24:42.649Z,40.73
2023-03-10T01:25:42.631Z,40.73
2023-03-10T01:26:42.628Z,40.73
2023-03-10T01:27:42.594Z,40.73
2023-03-10T01:28:42.658Z,40.73
2023-03-10T01:29:42.584Z,40.73
2023-03-10T01:30:42.581Z,40.73
2023-03-10T01:31:42.681Z,40.73
2023-03-10T01:32:42.585Z,40.62
2023-03-10T01:33:42.529Z,40.73
2023-03-10T01:34:42.591Z,40.73
2023-03-10T01:35:42.615Z,40.73
2023-03-10T01:36:43.493Z,40.73
2023-03-10T01:37:44.481Z,40.73
2023-03-10T01:38:42.499Z,40.62
2023-03-10T01:39:42.570Z,40.62
2023-03-10T01:40:42.519Z,40.73
2023-03-10T01:41:42.448Z,40.73
2023-03-10T01:42:42.454Z,40.73
2023-03-10T01:43:42.427Z,40.62
2023-03-10T01:44:42.444Z,40.62
2023-03-10T01:45:42.444Z,40.62
2023-03-10T01:46:42.547Z,40.62
2023-03-10T01:47:42.382Z,40.73
2023-03-10T01:48:42.405Z,40.62
2023-03-10T01:49:42.372Z,40.62
2023-03-10T01:50:42.392Z,40.62
2023-03-10T01:51:42.394Z,40.62
2023-03-10T01:52:42.404Z,40.62
2023-03-10T01:53:42.365Z,40.62
2023-03-10T01:54:42.369Z,40.62
2023-03-10T01:55:42.356Z,40.62
2023-03-10T01:56:42.344Z,40.62
2023-03-10T01:57:42.312Z,40.62
2023-03-10T01:58:42.311Z,40.62
2023-03-10T01:59:42.271Z,40.62
2023-03-10T02:00:42.326Z,40.62
2023-03-10T02:01:42.282Z,40.62
2023-03-10T02:02:42.303Z,40.62
2023-03-10T02:03:42.244Z,40.62
2023-03-10T02:04:42.418Z,40.62
2023-03-10T02:05:42.236Z,40.62
2023-03-10T02:06:42.315Z,40.62
2023-03-10T02:07:42.190Z,40.62
2023-03-10T02:08:44.276Z,40.62
2023-03-10T02:09:43.113Z,40.62
2023-03-10T02:10:42.183Z,40.62
2023-03-10T02:11:42.133Z,40.62
2023-03-10T02:12:42.164Z,40.62
2023-03-10T02:13:42.164Z,40.62
2023-03-10T02:14:42.147Z,40.62
2023-03-10T02:15:42.117Z,40.62
2023-03-10T02:16:42.256Z,40.62
2023-03-10T02:17:42.164Z,40.62
2023-03-10T02:18:42.098Z,40.62
2023-03-10T02:19:42.067Z,40.62
2023-03-10T02:20:42.066Z,40.62
2023-03-10T02:21:42.051Z,40.62
2023-03-10T02:22:42.057Z,40.62
2023-03-10T02:23:51.379Z,40.53
2023-03-10T02:24:43.026Z,40.53
2023-03-10T02:25:42.039Z,40.62
2023-03-10T02:26:42.006Z,40.62
2023-03-10T02:27:41.995Z,40.64
2023-03-10T02:28:42.021Z,40.53
2023-03-10T02:29:52.513Z,40.55
2023-03-10T02:30:42.988Z,40.53
2023-03-10T02:31:42.025Z,40.55
2023-03-10T02:32:41.975Z,40.53
2023-03-10T02:33:41.937Z,40.64
2023-03-10T02:34:41.950Z,40.55
2023-03-10T02:35:41.949Z,40.55
2023-03-10T02:36:41.923Z,40.55
2023-03-10T02:37:41.882Z,40.55
2023-03-10T02:38:41.880Z,40.55
2023-03-10T02:39:41.873Z,40.55
2023-03-10T02:40:41.868Z,40.55
2023-03-10T02:41:44.200Z,40.55
2023-03-10T02:42:41.829Z,40.55
2023-03-10T02:43:41.818Z,40.55
2023-03-10T02:44:41.829Z,40.55
2023-03-10T02:45:41.878Z,40.55
2023-03-10T02:46:42.800Z,40.55
2023-03-10T02:47:41.788Z,40.55
2023-03-10T02:48:41.802Z,40.55
2023-03-10T02:49:41.761Z,40.55
2023-03-10T02:50:41.760Z,40.55
2023-03-10T02:51:41.752Z,40.55
2023-03-10T02:52:41.790Z,40.55
2023-03-10T02:53:41.719Z,40.55
2023-03-10T02:54:41.707Z,40.55
2023-03-10T02:55:41.698Z,40.55
2023-03-10T02:56:41.705Z,40.55
2023-03-10T02:57:41.708Z,40.55
2023-03-10T02:58:41.686Z,40.64
2023-03-10T02:59:41.645Z,40.55
2023-03-10T03:00:41.733Z,40.64
2023-03-10T03:01:41.626Z,40.64
2023-03-10T03:02:41.668Z,40.55
2023-03-10T03:03:41.647Z,40.64
2023-03-10T03:04:41.623Z,40.64
2023-03-10T03:05:41.600Z,40.64
2023-03-10T03:06:41.595Z,40.64
2023-03-10T03:07:41.608Z,40.64
2023-03-10T03:08:41.648Z,40.64
2023-03-10T03:09:41.546Z,40.64
2023-03-10T03:10:41.567Z,40.64
2023-03-10T03:11:41.547Z,40.64
2023-03-10T03:12:41.579Z,40.64
2023-03-10T03:13:41.528Z,40.64
2023-03-10T03:14:41.545Z,40.64
2023-03-10T03:15:41.499Z,40.64
2023-03-10T03:16:41.527Z,40.64
2023-03-10T03:17:41.476Z,40.55
2023-03-10T03:18:41.494Z,40.64
2023-03-10T03:19:41.438Z,40.64
2023-03-10T03:20:41.498Z,40.64
2023-03-10T03:21:41.413Z,40.64
2023-03-10T03:22:41.444Z,40.64
2023-03-10T03:23:41.409Z,40.64
2023-03-10T03:24:41.439Z,40.64
2023-03-10T03:25:41.371Z,40.64
2023-03-10T03:26:41.432Z,40.64
2023-03-10T03:27:41.416Z,40.64
2023-03-10T03:28:41.411Z,40.64
2023-03-10T03:29:41.358Z,40.64
2023-03-10T03:30:41.347Z,40.64
2023-03-10T03:31:41.454Z,40.64
2023-03-10T03:32:41.388Z,40.64
2023-03-10T03:33:41.316Z,40.64
2023-03-10T03:34:41.295Z,40.55
2023-03-10T03:35:41.283Z,40.64
2023-03-10T03:36:41.287Z,40.64
2023-03-10T03:37:41.298Z,40.64
2023-03-10T03:38:41.257Z,40.64
2023-03-10T03:39:41.285Z,40.55
2023-03-10T03:40:41.238Z,40.64
2023-03-10T03:41:41.206Z,40.55
2023-03-10T03:42:41.252Z,40.55
2023-03-10T03:43:41.194Z,40.55
2023-03-10T03:44:41.195Z,40.64
2023-03-10T03:45:41.230Z,40.64
2023-03-10T03:46:41.176Z,40.64
2023-03-10T03:47:41.189Z,40.64
2023-03-10T03:48:41.186Z,40.55
2023-03-10T03:49:41.147Z,40.64
2023-03-10T03:50:41.165Z,40.64
2023-03-10T03:51:41.137Z,40.64
2023-03-10T03:52:41.114Z,40.64
2023-03-10T03:53:41.126Z,40.64
2023-03-10T03:54:41.094Z,40.64
2023-03-10T03:55:41.097Z,40.64
2023-03-10T03:56:41.066Z,40.64
2023-03-10T03:57:41.042Z,40.64
2023-03-10T03:58:42.173Z,40.64
2023-03-10T03:59:41.077Z,40.64
2023-03-10T04:00:41.040Z,40.64
2023-03-10T04:01:41.049Z,40.64
2023-03-10T04:02:41.088Z,40.55
2023-03-10T04:03:41.070Z,40.55
2023-03-10T04:04:40.998Z,40.64
2023-03-10T04:05:40.958Z,40.55
2023-03-10T04:06:40.985Z,40.55
2023-03-10T04:07:40.945Z,40.64
2023-03-10T04:08:40.997Z,40.55
2023-03-10T04:09:40.965Z,40.64
2023-03-10T04:11:36.992Z,40.55
2023-03-10T04:12:36.978Z,40.64
2023-03-10T04:13:36.970Z,40.64
2023-03-10T04:14:36.958Z,40.64
2023-03-10T04:15:36.983Z,40.64
2023-03-10T04:16:36.933Z,40.64
2023-03-10T04:17:36.932Z,40.64
2023-03-10T04:18:37.110Z,40.55
2023-03-10T04:19:36.909Z,40.64
2023-03-10T04:20:36.900Z,40.64
2023-03-10T04:21:36.883Z,40.56
2023-03-10T04:22:36.850Z,40.64
2023-03-10T04:23:36.867Z,40.64
2023-03-10T04:24:36.829Z,40.64
2023-03-10T04:25:36.830Z,40.66
2023-03-10T04:26:37.038Z,40.66
2023-03-10T04:27:36.821Z,40.64
2023-03-10T04:28:36.792Z,40.56
2023-03-10T04:29:36.823Z,40.64
2023-03-10T04:30:36.782Z,40.66
2023-03-10T04:31:36.899Z,40.64
2023-03-10T04:32:36.832Z,40.56
2023-03-10T04:33:36.763Z,40.64
2023-03-10T04:34:36.737Z,40.66
2023-03-10T04:35:36.765Z,40.56
2023-03-10T04:36:36.721Z,40.56
2023-03-10T04:37:36.708Z,40.56
2023-03-10T04:38:36.690Z,40.66
2023-03-10T04:39:36.692Z,40.56
2023-03-10T04:40:36.688Z,40.56
2023-03-10T04:41:36.697Z,40.56
2023-03-10T04:42:36.662Z,40.56
2023-03-10T04:43:36.653Z,40.56
2023-03-10T04:44:36.631Z,40.56
2023-03-10T04:45:36.642Z,40.56
2023-03-10T04:46:36.675Z,40.56
2023-03-10T04:47:36.621Z,40.64
2023-03-10T04:48:36.595Z,40.56
2023-03-10T04:49:36.603Z,40.66
2023-03-10T04:50:36.612Z,40.64
2023-03-10T04:51:36.581Z,40.64
2023-03-10T04:52:36.556Z,40.55
2023-03-10T04:53:36.553Z,40.55
2023-03-10T04:54:36.525Z,40.64
2023-03-10T04:55:36.531Z,40.64
2023-03-10T04:56:36.492Z,40.55
2023-03-10T04:57:36.570Z,40.55
2023-03-10T04:58:36.491Z,40.55
2023-03-10T04:59:36.522Z,40.55
2023-03-10T05:00:36.501Z,40.55
2023-03-10T05:01:36.532Z,40.55
2023-03-10T05:02:36.475Z,40.55
2023-03-10T05:03:36.456Z,40.55
2023-03-10T05:04:36.464Z,40.55
2023-03-10T05:05:37.609Z,40.55
2023-03-10T05:06:36.390Z,40.55
2023-03-10T05:07:36.403Z,40.55
2023-03-10T05:08:37.029Z,40.55
2023-03-10T05:09:36.370Z,40.55
2023-03-10T05:10:36.368Z,40.44
2023-03-10T05:11:36.362Z,40.44
2023-03-10T05:12:36.330Z,40.55
2023-03-10T05:13:36.359Z,40.44
2023-03-10T05:14:36.332Z,40.44
2023-03-10T05:15:36.321Z,40.44
2023-03-10T05:16:36.323Z,40.44
2023-03-10T05:17:36.318Z,40.44
2023-03-10T05:18:36.260Z,40.44
2023-03-10T05:19:36.276Z,40.42
2023-03-10T05:20:36.285Z,40.42
2023-03-10T05:21:36.238Z,40.42
2023-03-10T05:22:36.246Z,40.42
2023-03-10T05:23:36.229Z,40.33
2023-03-10T05:24:36.231Z,40.42
2023-03-10T05:25:36.215Z,40.33
2023-03-10T05:26:36.208Z,40.33
2023-03-10T05:27:36.179Z,40.33
2023-03-10T05:28:36.172Z,40.33
2023-03-10T05:29:36.152Z,40.33
2023-03-10T05:30:36.169Z,40.33
2023-03-10T05:31:36.179Z,40.33
2023-03-10T05:32:36.166Z,40.33
2023-03-10T05:33:36.117Z,40.33
2023-03-10T05:34:36.113Z,40.33
2023-03-10T05:35:36.101Z,40.33
2023-03-10T05:36:36.140Z,40.20
2023-03-10T05:37:36.059Z,40.30
2023-03-10T05:38:36.070Z,40.30
2023-03-10T05:39:36.053Z,40.30
2023-03-10T05:40:36.068Z,40.30
2023-03-10T05:41:36.031Z,40.20
2023-03-10T05:42:36.072Z,40.20
2023-03-10T05:43:36.019Z,40.20
2023-03-10T05:44:35.977Z,40.20
2023-03-10T05:45:35.921Z,40.20
2023-03-10T05:46:35.985Z,40.20
2023-03-10T05:47:35.914Z,40.20
2023-03-10T05:48:35.974Z,40.20
2023-03-10T05:49:38.544Z,40.20
2023-03-10T05:50:35.968Z,40.20
2023-03-10T05:51:35.941Z,40.20
2023-03-10T05:52:35.891Z,40.20
2023-03-10T05:53:35.922Z,40.20
2023-03-10T05:54:36.862Z,40.20
2023-03-10T05:55:35.886Z,40.08
2023-03-10T05:56:35.842Z,40.08
2023-03-10T05:57:35.820Z,40.08
2023-03-10T05:58:35.845Z,40.19
2023-03-10T05:59:35.815Z,40.19
2023-03-10T06:00:35.805Z,40.08
2023-03-10T06:01:35.801Z,40.08
2023-03-10T06:02:35.793Z,40.08
2023-03-10T06:03:36.555Z,40.19
2023-03-10T06:04:35.750Z,40.19
2023-03-10T06:05:35.751Z,40.08
2023-03-10T06:06:35.749Z,40.08
2023-03-10T06:07:35.700Z,40.08
2023-03-10T06:08:35.709Z,40.08
2023-03-10T06:09:35.679Z,40.08
2023-03-10T06:10:35.700Z,40.08
2023-03-10T06:11:35.693Z,40.08
2023-03-10T06:12:35.672Z,40.19
2023-03-10T06:13:35.674Z,40.08
2023-03-10T06:14:35.682Z,39.98
2023-03-10T06:15:35.636Z,40.08
2023-03-10T06:16:35.693Z,40.08
2023-03-10T06:17:35.602Z,40.08
2023-03-10T06:18:35.621Z,40.08
2023-03-10T06:19:35.590Z,39.98
2023-03-10T06:20:35.580Z,39.98
2023-03-10T06:21:35.561Z,39.98
2023-03-10T06:22:35.570Z,39.98
2023-03-10T06:23:35.552Z,39.98
2023-03-10T06:24:35.553Z,39.98
2023-03-10T06:25:35.554Z,39.98
2023-03-10T06:26:35.522Z,39.98
2023-03-10T06:27:35.490Z,39.97
2023-03-10T06:28:35.521Z,39.97
2023-03-10T06:29:35.485Z,39.97
2023-03-10T06:30:35.502Z,39.97
2023-03-10T06:31:35.466Z,39.97
2023-03-10T06:32:35.502Z,39.97
2023-03-10T06:33:35.442Z,39.97
2023-03-10T06:34:35.445Z,39.97
2023-03-10T06:35:35.454Z,39.97
2023-03-10T06:36:35.444Z,39.97
2023-03-10T06:37:35.565Z,39.97
2023-03-10T06:38:35.406Z,39.97
2023-03-10T06:39:35.387Z,39.97
2023-03-10T06:40:35.396Z,39.86
2023-03-10T06:41:35.440Z,39.86
2023-03-10T06:42:35.367Z,39.86
2023-03-10T06:43:35.353Z,39.86
2023-03-10T06:44:35.346Z,39.86
2023-03-10T06:45:35.424Z,39.86
2023-03-10T06:46:35.349Z,39.86
2023-03-10T06:47:35.489Z,39.86
2023-03-10T06:48:35.298Z,39.97
2023-03-10T06:49:35.295Z,39.97
2023-03-10T06:50:35.291Z,39.97
2023-03-10T06:51:35.288Z,39.97
2023-03-10T06:52:35.319Z,39.97
2023-03-10T06:53:35.269Z,39.97
2023-03-10T06:54:35.250Z,39.97
2023-03-10T06:55:35.239Z,40.06
2023-03-10T06:56:35.239Z,40.08
2023-03-10T06:57:35.200Z,40.06
2023-03-10T06:58:36.198Z,40.06
2023-03-10T06:59:35.181Z,40.06
2023-03-10T07:00:35.188Z,40.08
2023-03-10T07:01:35.193Z,40.08
2023-03-10T07:02:35.186Z,40.08
2023-03-10T07:03:35.126Z,40.08
2023-03-10T07:04:35.230Z,40.19
2023-03-10T07:05:35.116Z,40.08
2023-03-10T07:06:35.134Z,40.19
2023-03-10T07:07:35.115Z,40.19
2023-03-10T07:08:35.127Z,40.19
2023-03-10T07:09:35.075Z,40.19
2023-03-10T07:10:35.097Z,40.19
2023-03-10T07:11:35.082Z,40.19
2023-03-10T07:12:35.055Z,40.19
2023-03-10T07:13:35.044Z,40.19
2023-03-10T07:14:35.085Z,40.17
2023-03-10T07:15:35.001Z,40.17
2023-03-10T07:16:35.061Z,40.19
2023-03-10T07:17:35.025Z,40.08
2023-03-10T07:18:35.068Z,40.08
2023-03-10T07:19:34.972Z,40.19
2023-03-10T07:20:35.012Z,40.19
2023-03-10T07:21:34.944Z,40.19
2023-03-10T07:22:34.953Z,40.19
2023-03-10T07:23:34.969Z,40.19
2023-03-10T07:24:34.954Z,40.19
2023-03-10T07:25:34.958Z,40.17
2023-03-10T07:26:34.922Z,40.19
2023-03-10T07:27:34.881Z,40.28
2023-03-10T07:28:34.931Z,40.28
2023-03-10T07:29:34.903Z,40.19
2023-03-10T07:30:34.969Z,40.19
2023-03-10T07:31:34.841Z,40.19
2023-03-10T07:32:34.910Z,40.19
2023-03-10T07:33:34.834Z,40.19
2023-03-10T07:34:34.869Z,40.19
2023-03-10T07:35:36.795Z,40.19
2023-03-10T07:36:34.805Z,40.19
2023-03-10T07:37:35.034Z,40.19
2023-03-10T07:38:34.800Z,40.19
2023-03-10T07:39:34.793Z,40.19
2023-03-10T07:40:34.781Z,40.19
2023-03-10T07:41:34.763Z,40.19
2023-03-10T07:42:34.782Z,40.19
2023-03-10T07:43:34.723Z,40.28
2023-03-10T07:44:34.765Z,40.19
2023-03-10T07:45:34.736Z,40.19
2023-03-10T07:46:34.757Z,40.19
2023-03-10T07:47:34.699Z,40.19
2023-03-10T07:48:34.698Z,40.19
2023-03-10T07:49:34.671Z,40.28
2023-03-10T07:50:34.704Z,40.28
2023-03-10T07:51:34.646Z,40.19
2023-03-10T07:52:34.647Z,40.19
2023-03-10T07:53:34.633Z,40.19
2023-03-10T07:54:34.655Z,40.28
2023-03-10T07:55:34.655Z,40.28
2023-03-10T07:56:34.837Z,40.28
2023-03-10T07:57:34.663Z,40.19
2023-03-10T07:58:34.576Z,40.19
2023-03-10T07:59:34.581Z,40.19
2023-03-10T08:00:34.915Z,40.19
2023-03-10T08:01:34.541Z,40.19
2023-03-10T08:02:34.589Z,40.19
2023-03-10T08:03:34.561Z,40.28
2023-03-10T08:04:34.615Z,40.28
2023-03-10T08:05:34.536Z,40.28
2023-03-10T08:06:34.606Z,40.28
2023-03-10T08:07:34.488Z,40.28
2023-03-10T08:08:34.546Z,40.28
2023-03-10T08:09:34.467Z,40.28
2023-03-10T08:10:34.482Z,40.28
2023-03-10T08:11:34.433Z,40.28
2023-03-10T08:12:34.458Z,40.28
2023-03-10T08:13:34.508Z,40.28
2023-03-10T08:14:34.434Z,40.28
2023-03-10T08:15:34.488Z,40.28
2023-03-10T08:16:34.440Z,40.28
2023-03-10T08:17:34.396Z,40.28
2023-03-10T08:18:34.436Z,40.28
2023-03-10T08:19:34.354Z,40.28
2023-03-10T08:20:34.385Z,40.28
2023-03-10T08:21:34.336Z,40.28
2023-03-10T08:22:34.333Z,40.28
2023-03-10T08:23:34.319Z,40.28
2023-03-10T08:24:34.366Z,40.28
2023-03-10T08:25:34.295Z,40.28
2023-03-10T08:26:34.315Z,40.28
2023-03-10T08:27:34.285Z,40.28
2023-03-10T08:28:34.284Z,40.28
2023-03-10T08:29:34.259Z,40.28
2023-03-10T08:30:34.284Z,40.28
2023-03-10T08:31:34.293Z,40.28
2023-03-10T08:32:34.491Z,40.28
2023-03-10T08:33:34.209Z,40.28
2023-03-10T08:34:34.234Z,40.28
2023-03-10T08:35:34.203Z,40.39
2023-03-10T08:36:34.203Z,40.28
2023-03-10T08:37:34.164Z,40.39
2023-03-10T08:38:34.185Z,40.28
2023-03-10T08:39:34.152Z,40.28
2023-03-10T08:40:34.184Z,40.28
2023-03-10T08:41:36.189Z,40.28
2023-03-10T08:42:34.163Z,40.28
2023-03-10T08:43:34.115Z,40.28
2023-03-10T08:44:34.114Z,40.28
2023-03-10T08:45:34.118Z,40.28
2023-03-10T08:46:34.153Z,40.28
2023-03-10T08:47:34.065Z,40.28
2023-03-10T08:48:34.090Z,40.39
2023-03-10T08:49:34.057Z,40.39
2023-03-10T08:50:34.079Z,40.28
2023-03-10T08:51:34.046Z,40.28
2023-03-10T08:52:34.053Z,40.28
2023-03-10T08:53:34.016Z,40.28
2023-03-10T08:54:34.036Z,40.28
2023-03-10T08:55:33.986Z,40.28
2023-03-10T08:56:33.998Z,40.28
2023-03-10T08:57:33.973Z,40.26
2023-03-10T08:58:33.971Z,40.28
2023-03-10T08:59:33.979Z,40.28
2023-03-10T09:00:33.999Z,40.28
2023-03-10T09:01:33.995Z,40.28
2023-03-10T09:02:33.960Z,40.28
2023-03-10T09:03:33.961Z,40.26
2023-03-10T09:04:33.918Z,40.28
2023-03-10T09:05:33.933Z,40.28
2023-03-10T09:06:33.923Z,40.28
2023-03-10T09:07:33.888Z,40.28
2023-03-10T09:08:33.870Z,40.39
2023-03-10T09:09:33.876Z,40.39
2023-03-10T09:10:33.851Z,40.37
2023-03-10T09:12:35.080Z,40.39
2023-03-10T09:13:31.604Z,40.37
2023-03-10T09:14:30.616Z,40.39
2023-03-10T09:15:30.591Z,40.28
2023-03-10T09:16:30.644Z,40.26
2023-03-10T09:17:30.596Z,40.28
2023-03-10T09:18:30.554Z,40.28
2023-03-10T09:19:30.534Z,40.26
2023-03-10T09:20:30.545Z,40.37
2023-03-10T09:21:33.275Z,40.26
2023-03-10T09:22:30.543Z,40.26
2023-03-10T09:23:30.495Z,40.26
2023-03-10T09:24:30.515Z,40.37
2023-03-10T09:25:30.482Z,40.26
2023-03-10T09:26:30.481Z,40.26
2023-03-10T09:27:30.461Z,40.37
2023-03-10T09:28:30.464Z,40.26
2023-03-10T09:29:42.630Z,40.26
2023-03-10T09:30:31.467Z,40.26
2023-03-10T09:31:30.453Z,40.26
2023-03-10T09:32:30.476Z,40.37
2023-03-10T09:33:30.389Z,40.37
2023-03-10T09:34:30.399Z,40.26
2023-03-10T09:35:30.394Z,40.26
2023-03-10T09:36:30.425Z,40.26
2023-03-10T09:37:30.342Z,40.26
2023-03-10T09:38:30.364Z,40.26
2023-03-10T09:39:30.325Z,40.26
2023-03-10T09:40:30.320Z,40.26
2023-03-10T09:41:32.270Z,40.37
2023-03-10T09:42:37.844Z,40.37
2023-03-10T09:43:31.295Z,40.37
2023-03-10T09:44:30.295Z,40.26
2023-03-10T09:45:30.355Z,40.26
2023-03-10T09:46:30.276Z,40.26
2023-03-10T09:47:30.244Z,40.26
2023-03-10T09:48:30.268Z,40.26
2023-03-10T09:49:30.254Z,40.26
2023-03-10T09:50:30.245Z,40.26
2023-03-10T09:51:30.206Z,40.26
2023-03-10T09:52:30.213Z,40.26
2023-03-10T09:53:30.197Z,40.26
2023-03-10T09:54:30.204Z,40.26
2023-03-10T09:55:30.237Z,40.26
2023-03-10T09:56:30.209Z,40.26
2023-03-10T09:57:30.164Z,40.26
2023-03-10T09:58:30.173Z,40.26
2023-03-10T09:59:30.164Z,40.26
2023-03-10T10:00:30.170Z,40.37
2023-03-10T10:01:30.118Z,40.26
2023-03-10T10:02:30.108Z,40.26
2023-03-10T10:03:31.721Z,40.26
2023-03-10T10:04:30.129Z,40.37
2023-03-10T10:05:30.065Z,40.37
2023-03-10T10:06:30.051Z,40.47
2023-03-10T10:07:30.053Z,40.47
2023-03-10T10:08:30.100Z,40.47
2023-03-10T10:09:30.047Z,40.47
2023-03-10T10:10:30.016Z,40.47
2023-03-10T10:11:30.034Z,40.37
2023-03-10T10:12:30.031Z,40.37
2023-03-10T10:13:29.986Z,40.37
2023-03-10T10:14:31.408Z,40.37
2023-03-10T10:15:29.964Z,40.37
2023-03-10T10:16:34.626Z,40.37
2023-03-10T10:17:31.623Z,40.37
2023-03-10T10:18:30.002Z,40.37
2023-03-10T10:19:29.934Z,40.47
2023-03-10T10:20:29.903Z,40.37
2023-03-10T10:21:40.349Z,40.37
2023-03-10T10:22:30.911Z,40.37
2023-03-10T10:23:29.873Z,40.47
2023-03-10T10:24:29.887Z,40.47
2023-03-10T10:25:29.863Z,40.47
2023-03-10T10:26:29.934Z,40.37
2023-03-10T10:27:29.834Z,40.47
2023-03-10T10:28:29.859Z,40.47
2023-03-10T10:29:29.817Z,40.47
2023-03-10T10:30:29.924Z,40.47
2023-03-10T10:31:29.909Z,40.37
2023-03-10T10:32:29.833Z,40.47
2023-03-10T10:33:29.761Z,40.47
2023-03-10T10:34:29.773Z,40.47
2023-03-10T10:35:29.753Z,40.47
2023-03-10T10:36:30.056Z,40.47
2023-03-10T10:37:29.727Z,40.47
2023-03-10T10:38:29.738Z,40.47
2023-03-10T10:39:29.703Z,40.47
2023-03-10T10:40:29.702Z,40.47
2023-03-10T10:41:29.692Z,40.47
2023-03-10T10:42:29.724Z,40.47
2023-03-10T10:43:29.695Z,40.47
2023-03-10T10:44:29.674Z,40.47
2023-03-10T10:45:29.640Z,40.47
2023-03-10T10:46:29.747Z,40.47
2023-03-10T10:47:29.661Z,40.47
2023-03-10T10:48:29.664Z,40.37
2023-03-10T10:49:29.608Z,40.37
2023-03-10T10:50:29.622Z,40.37
2023-03-10T10:51:29.607Z,40.37
2023-03-10T10:52:29.584Z,40.26
2023-03-10T10:53:29.565Z,40.26
2023-03-10T10:54:29.639Z,40.26
2023-03-10T10:55:29.573Z,40.26
2023-03-10T10:56:29.577Z,40.26
2023-03-10T10:57:29.519Z,40.26
2023-03-10T10:58:29.549Z,40.26
2023-03-10T10:59:29.515Z,40.17
2023-03-10T11:00:29.536Z,40.17
2023-03-10T11:01:29.673Z,40.17
2023-03-10T11:02:29.625Z,40.17
2023-03-10T11:03:31.342Z,40.05
2023-03-10T11:04:29.514Z,40.05
2023-03-10T11:05:29.469Z,40.05
2023-03-10T11:06:29.541Z,40.05
2023-03-10T11:07:29.418Z,40.05
2023-03-10T11:08:29.451Z,39.95
2023-03-10T11:09:29.417Z,39.95
2023-03-10T11:10:29.418Z,39.95
2023-03-10T11:11:29.460Z,39.95
2023-03-10T11:12:29.388Z,39.95
2023-03-10T11:13:29.410Z,39.95
2023-03-10T11:14:29.601Z,39.84
2023-03-10T11:15:29.396Z,39.84
2023-03-10T11:16:29.349Z,39.84
2023-03-10T11:17:29.310Z,39.84
2023-03-10T11:18:29.335Z,39.84
2023-03-10T11:19:29.501Z,39.84
2023-03-10T11:20:29.305Z,39.84
2023-03-10T11:21:29.279Z,39.75
2023-03-10T11:22:29.277Z,39.75
2023-03-10T11:23:29.337Z,39.75
2023-03-10T11:24:29.244Z,39.75
2023-03-10T11:25:29.661Z,39.75
2023-03-10T11:26:29.954Z,39.73
2023-03-10T11:27:29.220Z,39.75
2023-03-10T11:28:29.214Z,39.73
2023-03-10T11:29:29.287Z,39.73
2023-03-10T11:30:29.180Z,39.73
2023-03-10T11:31:29.607Z,39.62
2023-03-10T11:32:29.229Z,39.62
2023-03-10T11:33:29.228Z,39.62
2023-03-10T11:34:29.164Z,39.62
2023-03-10T11:35:29.309Z,39.62
2023-03-10T11:36:29.153Z,39.62
2023-03-10T11:37:29.151Z,39.62
2023-03-10T11:38:29.103Z,39.62
2023-03-10T11:39:29.108Z,39.62
2023-03-10T11:40:29.098Z,39.62
2023-03-10T11:41:29.097Z,39.62
2023-03-10T11:42:29.062Z,39.62
2023-03-10T11:43:29.092Z,39.53
2023-03-10T11:44:29.070Z,39.53
2023-03-10T11:45:29.061Z,39.53
2023-03-10T11:46:29.133Z,39.62
2023-03-10T11:47:29.074Z,39.53
2023-03-10T11:48:28.999Z,39.53
2023-03-10T11:49:29.011Z,39.53
2023-03-10T11:50:28.981Z,39.53
2023-03-10T11:51:28.980Z,39.53
2023-03-10T11:52:28.960Z,39.53
2023-03-10T11:53:29.097Z,39.53
2023-03-10T11:54:28.944Z,39.53
2023-03-10T11:55:28.939Z,39.53
2023-03-10T11:56:29.005Z,39.53
2023-03-10T11:57:28.925Z,39.53
2023-03-10T11:58:28.900Z,39.53
2023-03-10T11:59:28.901Z,39.53
2023-03-10T12:00:28.894Z,39.53
2023-03-10T12:01:28.896Z,39.53
2023-03-10T12:02:28.868Z,39.53
2023-03-10T12:03:28.955Z,39.53
2023-03-10T12:04:28.832Z,39.53
2023-03-10T12:05:29.258Z,39.53
2023-03-10T12:06:28.811Z,39.53
2023-03-10T12:07:28.810Z,39.53
2023-03-10T12:08:28.781Z,39.53
2023-03-10T12:09:28.809Z,39.53
2023-03-10T12:10:28.790Z,39.53
2023-03-10T12:11:28.763Z,39.53
2023-03-10T12:12:29.406Z,39.53
2023-03-10T12:13:28.776Z,39.53
2023-03-10T12:14:28.768Z,39.53
2023-03-10T12:15:29.164Z,39.53
2023-03-10T12:16:28.806Z,39.53
2023-03-10T12:17:28.713Z,39.42
2023-03-10T12:18:28.698Z,39.42
2023-03-10T12:19:28.699Z,39.42
2023-03-10T12:20:28.694Z,39.42
2023-03-10T12:21:28.669Z,39.53
2023-03-10T12:22:28.642Z,39.42
2023-03-10T12:23:28.634Z,39.42
2023-03-10T12:24:28.640Z,39.42
2023-03-10T12:25:28.673Z,39.42
2023-03-10T12:26:28.621Z,39.42
2023-03-10T12:27:28.601Z,39.42
2023-03-10T12:28:28.600Z,39.42
2023-03-10T12:29:28.591Z,39.42
2023-03-10T12:30:28.553Z,39.42
2023-03-10T12:31:28.618Z,39.42
2023-03-10T12:32:28.580Z,39.42
2023-03-10T12:33:28.549Z,39.42
2023-03-10T12:34:28.522Z,39.42
2023-03-10T12:35:28.547Z,39.42
2023-03-10T12:36:28.586Z,39.42
2023-03-10T12:37:28.507Z,39.42
2023-03-10T12:38:28.468Z,39.42
2023-03-10T12:39:28.505Z,39.42
2023-03-10T12:40:28.470Z,39.42
2023-03-10T12:41:28.504Z,39.42
2023-03-10T12:42:28.481Z,39.42
2023-03-10T12:43:28.428Z,39.42
2023-03-10T12:44:28.409Z,39.42
2023-03-10T12:45:28.423Z,39.42
2023-03-10T12:46:28.451Z,39.42
2023-03-10T12:47:28.622Z,39.42
2023-03-10T12:48:28.367Z,39.42
2023-03-10T12:49:28.383Z,39.42
2023-03-10T12:50:28.346Z,39.42
2023-03-10T12:51:28.365Z,39.42
2023-03-10T12:52:28.361Z,39.42
2023-03-10T12:53:28.329Z,39.42
2023-03-10T12:54:28.296Z,39.42